Airfield :







YOU CAN JOIN US ON...

 
LOGIN :

Register | Disclaimer

   EN    FR    IT 

 









Legend :    VFR   Marginal VFR   IFR   Intensive IFR   Very Intensive IFR
Visi :
Ceiling :
>= 8 km
>= 3000ft
5 to 8 km
1000 to 3000 ft
1500m to 5 km
500 to 1000 ft
800 to 1500m
200 to 500 ft
< 800m
< 200 ft
Symbols :   Thunderstorms  Fog  Heavy snow  Heavy precipitations  Wind > 20 kt






- Airport Elevation : 244 ft
- IATA code : YQB


CYQB - Quebec - Jean Lesage Int.

CURRENT METAR :
  • 271446Z 07030G38KT 1/8SM R06/1800FT/N SN +BLSN VV003 M02/M03 A2950 RMK BLSN8 PRESFR SLP994

EXPIRED METARs :
  • 271424Z 06032G46KT 1/8SM R06/1400V2000FT/N SN +BLSN VV004 M02/M03 A2954 RMK SN8 PRESFR SLP010
  • 271412Z 07031G42KT 1/4SM R06/2200FT/N SN +BLSN VV005 M02/M03 A2956 RMK SN8 SLP016
  • 271400Z 07028G41KT 1/2SM R06/2200FT/N SN BLSN VV006 M02/M03 A2958 RMK BLSN8 SLP023
  • 271350Z 07030G39KT 3/4SM R06/2400V3500FT/N -SN BLSN VV008 M02/M03 A2958 RMK SN8 PRESFR SLP023
  • 271332Z 06033G42KT 3/4SM R06/3000V5500FT/D -SN DRSN VV015 M01/M03 A2960 RMK SN8 PRESFR SLP029
  • 271309Z 06028G41KT 15SM -SN DRSN OVC023 M01/M04 A2961 RMK SC8 PRESFR SLP031
  • 271200Z 06031G41KT 15SM DRSN FEW006 OVC026 M01/M05 A2965 RMK SF1SC8 SF TR PRESFR SLP046

TAF AMD TAF CYQB
Valid from the 27 at 14:00 until the 28 at 12:00 UTC


271426Z 2714/2812 07032G42KT 1/4SM SN +BLSN VV005
TEMPO 2714/2717 1SM -SN BLSN OVC010
FM271700 07032G42KT 1/2SM SN BLSN VV005
TEMPO 2717/2721 2SM -SN BLSN OVC010
FM272100 07025G35KT 2SM -SN BLSN OVC020
FM280000 08020G30KT 11/2SM -SN BLSN OVC012
BECMG 2801/2803 09012G22KT
FM281000 24015G25KT 5SM -SN OVC015 RMK NXT FCST BY 271800Z
ATIS : ENG : +1 418-871-6893 FRA : +1 418-871-6895



MET'MAP, your aeronautical weather chart ! - Copyright ORBIFLY December 2007 - Disclaimer

ORBIFLY MET'MAP TEAM :

Programming & Development : Alexandra Zaïnal
Concept & original design : Baudouin d'Aumeries
Assistance for programming : Marc-Olivier Méhu
Technical & hardware support : Manuel Goepfert

Contact : metmap@orbifly.com




SOURCES & CREDITS :

   NOAA